createdAt,value
2019-04-07T00:01:37.782Z,99362.36
2019-04-07T00:03:12.908Z,99361.22
2019-04-07T00:04:47.726Z,99358.34
2019-04-07T00:06:22.603Z,99366.20
2019-04-07T00:07:59.059Z,99365.30
2019-04-07T00:09:34.366Z,99369.09
2019-04-07T00:11:09.426Z,99366.16
2019-04-07T00:12:44.275Z,99368.31
2019-04-07T00:14:19.291Z,99371.67
2019-04-07T00:15:54.202Z,99364.53
2019-04-07T00:17:29.273Z,99368.62
2019-04-07T00:19:04.410Z,99370.22
2019-04-07T00:20:39.178Z,99364.81
2019-04-07T00:22:13.944Z,99375.03
2019-04-07T00:23:48.999Z,99375.11
2019-04-07T00:25:23.832Z,99371.07
2019-04-07T00:26:58.749Z,99374.81
2019-04-07T00:28:33.758Z,99377.02
2019-04-07T00:30:09.057Z,99377.60
2019-04-07T00:31:43.846Z,99383.27
2019-04-07T00:33:18.333Z,99375.63
2019-04-07T00:34:53.045Z,99383.14
2019-04-07T00:36:27.875Z,99383.92
2019-04-07T00:38:02.415Z,99390.02
2019-04-07T00:39:37.644Z,99381.81
2019-04-07T00:41:12.135Z,99380.97
2019-04-07T00:42:46.660Z,99388.70
2019-04-07T00:44:21.048Z,99380.63
2019-04-07T00:45:55.897Z,99380.25
2019-04-07T00:47:30.710Z,99374.77
2019-04-07T00:49:05.199Z,99380.31
2019-04-07T00:50:39.652Z,99378.63
2019-04-07T00:52:15.412Z,99377.77
2019-04-07T00:53:49.808Z,99382.15
2019-04-07T00:55:24.270Z,99377.02
2019-04-07T00:56:59.408Z,99378.08
2019-04-07T00:58:34.364Z,99381.29
2019-04-07T01:00:11.751Z,99384.53
2019-04-07T01:01:46.296Z,99386.59
2019-04-07T01:03:20.637Z,99390.74
2019-04-07T01:04:55.085Z,99389.08
2019-04-07T01:06:29.527Z,99387.33
2019-04-07T01:08:04.309Z,99383.95
2019-04-07T01:09:38.732Z,99395.86
2019-04-07T01:11:13.527Z,99398.31
2019-04-07T01:12:48.148Z,99391.23
2019-04-07T01:14:22.515Z,99392.48
2019-04-07T01:15:57.187Z,99395.30
2019-04-07T01:17:31.818Z,99397.23
2019-04-07T01:19:07.177Z,99391.00
2019-04-07T01:20:41.907Z,99393.80
2019-04-07T01:22:16.565Z,99400.45
2019-04-07T01:23:51.069Z,99397.67
2019-04-07T01:25:26.771Z,99404.48
2019-04-07T01:27:01.197Z,99406.39
2019-04-07T01:28:36.279Z,99406.70
2019-04-07T01:30:11.783Z,99401.73
2019-04-07T01:31:46.257Z,99408.86
2019-04-07T01:33:20.746Z,99406.52
2019-04-07T01:34:55.780Z,99406.65
2019-04-07T01:36:30.296Z,99401.40
2019-04-07T01:38:04.936Z,99405.17
2019-04-07T01:39:39.519Z,99407.72
2019-04-07T01:41:31.747Z,99402.89
2019-04-07T01:43:34.676Z,99410.59
2019-04-07T01:45:27.092Z,99404.19
2019-04-07T01:47:18.973Z,99402.36
2019-04-07T01:49:11.755Z,99406.59
2019-04-07T01:50:53.932Z,99406.94
2019-04-07T01:52:40.568Z,99400.64
2019-04-07T01:54:26.029Z,99398.95
2019-04-07T01:56:06.508Z,99404.97
2019-04-07T01:57:49.389Z,99404.52
2019-04-07T01:59:40.869Z,99403.03
2019-04-07T02:01:24.678Z,99398.80
2019-04-07T02:03:16.317Z,99401.52
2019-04-07T02:05:01.211Z,99398.60
2019-04-07T02:06:44.102Z,99400.01
2019-04-07T02:08:25.306Z,99404.03
2019-04-07T02:10:12.010Z,99403.55
2019-04-07T02:12:06.066Z,99408.11
2019-04-07T02:13:54.676Z,99408.46
2019-04-07T02:15:47.463Z,99408.44
2019-04-07T02:17:27.509Z,99399.53
2019-04-07T02:19:27.093Z,99402.31
2019-04-07T02:21:08.454Z,99410.39
2019-04-07T02:23:01.995Z,99400.55
2019-04-07T02:24:55.423Z,99410.02
2019-04-07T02:26:40.912Z,99407.13
2019-04-07T02:28:24.204Z,99411.03
2019-04-07T02:30:07.899Z,99412.27
2019-04-07T02:31:50.262Z,99410.12
2019-04-07T02:33:37.274Z,99406.31
2019-04-07T02:35:20.886Z,99409.27
2019-04-07T02:37:24.394Z,99405.69
2019-04-07T02:39:14.145Z,99408.80
2019-04-07T02:41:07.887Z,99411.77
2019-04-07T02:42:48.451Z,99415.87
2019-04-07T02:44:40.977Z,99409.25
2019-04-07T02:46:24.544Z,99414.77
2019-04-07T02:48:05.165Z,99409.94
2019-04-07T02:49:45.692Z,99414.83
2019-04-07T02:51:38.817Z,99417.25
2019-04-07T02:53:21.472Z,99419.11
2019-04-07T02:55:06.803Z,99421.06
2019-04-07T02:56:56.208Z,99418.95
2019-04-07T02:58:49.791Z,99421.02
2019-04-07T03:00:36.451Z,99420.77
2019-04-07T03:02:27.109Z,99431.44
2019-04-07T03:04:27.279Z,99429.09
2019-04-07T03:06:20.965Z,99431.14
2019-04-07T03:07:59.465Z,99428.55
2019-04-07T03:09:44.030Z,99432.82
2019-04-07T03:11:43.070Z,99428.98
2019-04-07T03:13:43.305Z,99428.75
2019-04-07T03:15:33.006Z,99430.94
2019-04-07T03:17:25.684Z,99438.55
2019-04-07T03:19:15.079Z,99439.36
2019-04-07T03:21:08.049Z,99436.58
2019-04-07T03:23:05.261Z,99431.33
2019-04-07T03:24:56.871Z,99433.30
2019-04-07T03:26:47.847Z,99435.61
2019-04-07T03:28:42.324Z,99432.02
2019-04-07T03:30:39.683Z,99433.73
2019-04-07T03:32:40.422Z,99433.73
2019-04-07T03:34:23.290Z,99434.34
2019-04-07T03:36:17.969Z,99437.19
2019-04-07T03:38:10.316Z,99440.59
2019-04-07T03:39:52.572Z,99439.52
2019-04-07T03:41:43.917Z,99443.77
2019-04-07T03:43:47.209Z,99439.61
2019-04-07T03:45:30.528Z,99437.39
2019-04-07T03:47:14.931Z,99441.22
2019-04-07T03:48:59.121Z,99438.12
2019-04-07T03:50:53.079Z,99434.16
2019-04-07T03:53:06.023Z,99430.24
2019-04-07T03:54:58.893Z,99435.64
2019-04-07T03:56:46.025Z,99433.48
2019-04-07T03:58:41.049Z,99436.75
2019-04-07T04:01:35.625Z,99432.94
2019-04-07T04:03:27.251Z,99440.70
2019-04-07T04:05:15.803Z,99438.83
2019-04-07T04:07:30.722Z,99431.11
2019-04-07T04:09:08.272Z,99428.97
2019-04-07T04:11:02.759Z,99435.32
2019-04-07T04:13:03.062Z,99427.89
2019-04-07T04:14:43.707Z,99433.23
2019-04-07T04:16:23.284Z,99437.21
2019-04-07T04:17:58.385Z,99437.22
2019-04-07T04:19:33.673Z,99436.75
2019-04-07T04:21:09.084Z,99438.86
2019-04-07T04:22:44.334Z,99441.25
2019-04-07T04:24:19.908Z,99439.05
2019-04-07T04:25:55.652Z,99438.38
2019-04-07T04:27:31.241Z,99440.62
2019-04-07T04:29:06.238Z,99438.50
2019-04-07T04:30:41.901Z,99431.56
2019-04-07T04:32:16.786Z,99437.48
2019-04-07T04:33:51.869Z,99438.09
2019-04-07T04:35:26.704Z,99438.41
2019-04-07T04:37:01.836Z,99441.12
2019-04-07T04:38:36.909Z,99443.00
2019-04-07T04:40:12.130Z,99440.63
2019-04-07T04:41:46.948Z,99444.67
2019-04-07T04:43:21.708Z,99447.22
2019-04-07T04:44:56.580Z,99447.89
2019-04-07T04:46:32.434Z,99439.08
2019-04-07T04:48:08.672Z,99447.67
2019-04-07T04:49:43.628Z,99450.63
2019-04-07T04:51:20.129Z,99453.43
2019-04-07T04:52:55.136Z,99450.67
2019-04-07T04:54:29.898Z,99447.79
2019-04-07T04:56:05.571Z,99444.03
2019-04-07T04:57:40.625Z,99448.75
2019-04-07T04:59:15.654Z,99456.14
2019-04-07T05:00:50.691Z,99447.14
2019-04-07T05:02:25.772Z,99451.48
2019-04-07T05:04:00.668Z,99449.86
2019-04-07T05:05:35.686Z,99444.55
2019-04-07T05:07:11.286Z,99446.92
2019-04-07T05:08:46.888Z,99447.75
2019-04-07T05:10:21.822Z,99450.27
2019-04-07T05:11:56.573Z,99452.79
2019-04-07T05:13:31.688Z,99453.75
2019-04-07T05:15:07.972Z,99452.83
2019-04-07T05:16:42.765Z,99461.05
2019-04-07T05:18:17.616Z,99462.11
2019-04-07T05:19:52.188Z,99458.34
2019-04-07T05:21:27.338Z,99464.00
2019-04-07T05:23:02.636Z,99465.08
2019-04-07T05:24:37.611Z,99466.36
2019-04-07T05:26:12.294Z,99464.84
2019-04-07T05:27:46.644Z,99464.70
2019-04-07T05:29:21.255Z,99457.53
2019-04-07T05:30:55.596Z,99466.21
2019-04-07T05:32:30.223Z,99472.92
2019-04-07T05:34:05.355Z,99475.87
2019-04-07T05:35:40.494Z,99479.91
2019-04-07T05:37:15.013Z,99484.63
2019-04-07T05:38:49.975Z,99481.82
2019-04-07T05:40:24.556Z,99475.91
2019-04-07T05:41:59.195Z,99471.25
2019-04-07T05:43:33.892Z,99479.27
2019-04-07T05:45:08.542Z,99471.98
2019-04-07T05:46:43.778Z,99471.76
2019-04-07T05:48:20.330Z,99475.53
2019-04-07T05:49:57.446Z,99467.47
2019-04-07T05:51:31.509Z,99475.99
2019-04-07T05:53:06.801Z,99471.43
2019-04-07T05:54:42.861Z,99475.59
2019-04-07T05:56:17.621Z,99470.48
2019-04-07T05:57:53.144Z,99473.61
2019-04-07T05:59:27.828Z,99470.66
2019-04-07T06:01:02.764Z,99477.61
2019-04-07T06:02:37.523Z,99472.52
2019-04-07T06:04:16.973Z,99478.09
2019-04-07T06:05:50.799Z,99477.72
2019-04-07T06:07:28.775Z,99475.87
2019-04-07T06:09:00.475Z,99471.10
2019-04-07T06:10:34.933Z,99475.30
2019-04-07T06:12:09.850Z,99479.41
2019-04-07T06:13:45.571Z,99475.77
2019-04-07T06:15:22.192Z,99474.63
2019-04-07T06:16:56.430Z,99474.64
2019-04-07T06:18:33.884Z,99473.38
2019-04-07T06:20:12.123Z,99480.35
2019-04-07T06:21:47.288Z,99478.00
2019-04-07T06:23:22.104Z,99472.38
2019-04-07T06:24:56.676Z,99470.59
2019-04-07T06:26:31.218Z,99476.06
2019-04-07T06:28:07.086Z,99473.66
2019-04-07T06:29:42.360Z,99478.97
2019-04-07T06:31:17.387Z,99478.48
2019-04-07T06:32:52.729Z,99480.36
2019-04-07T06:34:27.185Z,99478.09
2019-04-07T06:36:01.529Z,99474.52
2019-04-07T06:37:36.348Z,99471.58
2019-04-07T06:39:10.793Z,99475.77
2019-04-07T06:40:45.916Z,99469.06
2019-04-07T06:42:20.873Z,99469.66
2019-04-07T06:44:08.236Z,99466.50
2019-04-07T06:45:36.717Z,99465.72
2019-04-07T06:47:18.659Z,99472.12
2019-04-07T06:49:09.072Z,99466.13
2019-04-07T06:51:01.727Z,99460.11
2019-04-07T06:52:58.930Z,99466.27
2019-04-07T06:54:56.064Z,99473.92
2019-04-07T06:57:06.043Z,99471.61
2019-04-07T06:58:58.094Z,99472.83
2019-04-07T07:00:55.052Z,99478.91
2019-04-07T07:02:48.868Z,99473.33
2019-04-07T07:04:32.340Z,99473.73
2019-04-07T07:06:26.741Z,99469.82
2019-04-07T07:08:10.162Z,99469.45
2019-04-07T07:09:54.796Z,99463.55
2019-04-07T07:11:44.524Z,99464.23
2019-04-07T07:13:43.950Z,99466.52
2019-04-07T07:15:36.226Z,99467.41
2019-04-07T07:17:31.115Z,99469.22
2019-04-07T07:19:26.355Z,99474.48
2019-04-07T07:21:39.310Z,99471.29
2019-04-07T07:23:16.959Z,99477.45
2019-04-07T07:24:55.813Z,99472.08
2019-04-07T07:26:28.427Z,99478.41
2019-04-07T07:28:03.351Z,99475.41
2019-04-07T07:29:38.661Z,99472.63
2019-04-07T07:31:14.281Z,99472.70
2019-04-07T07:32:49.683Z,99477.63
2019-04-07T07:34:24.512Z,99480.72
2019-04-07T07:35:59.286Z,99474.95
2019-04-07T07:37:33.774Z,99472.66
2019-04-07T07:39:11.569Z,99465.77
2019-04-07T07:40:47.416Z,99469.28
2019-04-07T07:42:23.268Z,99463.23
2019-04-07T07:44:00.708Z,99473.66
2019-04-07T07:45:33.357Z,99468.27
2019-04-07T07:47:08.019Z,99456.89
2019-04-07T07:48:42.415Z,99459.84
2019-04-07T07:50:17.894Z,99461.55
2019-04-07T07:51:52.738Z,99468.58
2019-04-07T07:53:28.628Z,99471.45
2019-04-07T07:55:03.767Z,99471.62
2019-04-07T07:56:41.432Z,99465.09
2019-04-07T07:58:15.699Z,99461.73
2019-04-07T07:59:50.881Z,99461.20
2019-04-07T08:01:25.676Z,99462.45
2019-04-07T08:03:00.572Z,99462.22
2019-04-07T08:04:35.573Z,99464.45
2019-04-07T08:06:12.985Z,99460.28
2019-04-07T08:07:49.450Z,99456.66
2019-04-07T08:09:25.904Z,99457.19
2019-04-07T08:11:01.665Z,99457.94
2019-04-07T08:12:36.311Z,99455.16
2019-04-07T08:14:15.165Z,99458.63
2019-04-07T08:15:47.255Z,99454.56
2019-04-07T08:17:21.616Z,99444.46
2019-04-07T08:18:59.129Z,99447.80
2019-04-07T08:20:32.604Z,99448.06
2019-04-07T08:22:07.987Z,99460.70
2019-04-07T08:23:45.150Z,99441.56
2019-04-07T08:25:23.664Z,99450.02
2019-04-07T08:26:58.845Z,99442.42
2019-04-07T08:28:35.130Z,99455.40
2019-04-07T08:30:13.615Z,99449.13
2019-04-07T08:31:47.115Z,99452.28
2019-04-07T08:33:21.458Z,99446.05
2019-04-07T08:34:55.943Z,99442.45
2019-04-07T08:36:30.628Z,99443.50
2019-04-07T08:38:08.758Z,99438.53
2019-04-07T08:39:43.250Z,99446.91
2019-04-07T08:41:18.078Z,99443.84
2019-04-07T08:42:52.613Z,99433.56
2019-04-07T08:44:29.306Z,99446.80
2019-04-07T08:46:04.739Z,99447.63
2019-04-07T08:47:39.244Z,99446.97
2019-04-07T08:49:14.157Z,99445.59
2019-04-07T08:50:48.617Z,99462.34
2019-04-07T08:52:23.444Z,99446.49
2019-04-07T08:53:58.530Z,99439.66
2019-04-07T08:55:33.480Z,99445.52
2019-04-07T08:57:08.288Z,99459.23
2019-04-07T08:58:42.886Z,99447.23
2019-04-07T09:00:21.384Z,99444.79
2019-04-07T09:01:56.992Z,99444.65
2019-04-07T09:03:31.489Z,99447.00
2019-04-07T09:05:06.607Z,99434.75
2019-04-07T09:06:41.444Z,99418.14
2019-04-07T09:08:17.246Z,99427.86
2019-04-07T09:09:52.694Z,99426.96
2019-04-07T09:11:28.299Z,99429.69
2019-04-07T09:13:07.762Z,99438.52
2019-04-07T09:14:40.902Z,99433.95
2019-04-07T09:16:26.857Z,99425.80
2019-04-07T09:18:14.166Z,99430.86
2019-04-07T09:20:10.659Z,99435.01
2019-04-07T09:21:54.584Z,99434.77
2019-04-07T09:23:39.200Z,99443.13
2019-04-07T09:25:22.712Z,99439.92
2019-04-07T09:27:19.405Z,99442.42
2019-04-07T09:28:58.694Z,99441.47
2019-04-07T09:31:03.570Z,99435.73
2019-04-07T09:32:48.861Z,99441.28
2019-04-07T09:34:41.967Z,99437.60
2019-04-07T09:36:38.312Z,99431.56
2019-04-07T09:38:30.976Z,99430.28
2019-04-07T09:40:17.434Z,99437.72
2019-04-07T09:41:59.876Z,99451.56
2019-04-07T09:44:03.232Z,99444.55
2019-04-07T09:46:15.809Z,99444.05
2019-04-07T09:48:04.078Z,99425.19
2019-04-07T09:49:58.425Z,99434.42
2019-04-07T09:51:41.391Z,99432.72
2019-04-07T09:53:34.918Z,99432.38
2019-04-07T09:55:32.117Z,99437.14
2019-04-07T09:57:21.412Z,99432.31
2019-04-07T09:59:18.137Z,99439.64
2019-04-07T10:01:01.480Z,99433.50
2019-04-07T10:02:54.110Z,99421.67
2019-04-07T10:04:42.266Z,99431.81
2019-04-07T10:06:34.436Z,99427.94
2019-04-07T10:08:47.693Z,99426.13
2019-04-07T10:10:43.652Z,99424.21
2019-04-07T10:12:30.095Z,99409.84
2019-04-07T10:14:30.793Z,99420.09
2019-04-07T10:16:21.210Z,99427.97
2019-04-07T10:18:18.288Z,99418.39
2019-04-07T10:20:11.287Z,99421.72
2019-04-07T10:22:01.476Z,99420.44
2019-04-07T10:23:50.619Z,99414.74
2019-04-07T10:25:30.553Z,99430.05
2019-04-07T10:27:17.630Z,99420.93
2019-04-07T10:29:12.204Z,99414.45
2019-04-07T10:31:04.759Z,99424.23
2019-04-07T10:32:50.049Z,99420.41
2019-04-07T10:34:43.978Z,99413.47
2019-04-07T10:36:47.543Z,99422.15
2019-04-07T10:38:30.585Z,99419.50
2019-04-07T10:40:24.411Z,99412.48
2019-04-07T10:42:22.184Z,99399.95
2019-04-07T10:44:09.614Z,99394.41
2019-04-07T10:46:03.449Z,99394.16
2019-04-07T10:47:50.191Z,99399.80
2019-04-07T10:49:40.702Z,99408.20
2019-04-07T10:51:31.897Z,99406.67
2019-04-07T10:53:26.300Z,99401.57
2019-04-07T10:55:09.039Z,99398.20
2019-04-07T10:56:50.051Z,99402.44
2019-04-07T10:58:35.432Z,99406.05
2019-04-07T11:00:20.205Z,99390.41
2019-04-07T11:02:08.667Z,99387.53
2019-04-07T11:04:06.055Z,99398.59
2019-04-07T11:05:56.054Z,99386.05
2019-04-07T11:07:53.790Z,99394.74
2019-04-07T11:09:47.535Z,99406.17
2019-04-07T11:11:41.220Z,99382.80
2019-04-07T11:13:34.340Z,99379.41
2019-04-07T11:15:48.772Z,99381.42
2019-04-07T11:17:39.425Z,99366.55
2019-04-07T11:19:24.189Z,99389.18
2019-04-07T11:21:30.459Z,99368.93
2019-04-07T11:23:25.117Z,99376.04
2019-04-07T11:25:07.649Z,99376.56
2019-04-07T11:26:49.476Z,99384.75
2019-04-07T11:28:43.510Z,99366.59
2019-04-07T11:30:30.792Z,99358.23
2019-04-07T11:32:19.566Z,99353.41
2019-04-07T11:33:59.178Z,99367.85
2019-04-07T11:35:38.301Z,99378.16
2019-04-07T11:37:26.516Z,99359.94
2019-04-07T11:39:29.127Z,99360.84
2019-04-07T11:41:28.885Z,99351.95
2019-04-07T11:43:22.655Z,99369.10
2019-04-07T11:45:19.419Z,99368.08
2019-04-07T11:46:59.448Z,99369.28
2019-04-07T11:48:51.878Z,99362.86
2019-04-07T11:50:32.598Z,99351.98
2019-04-07T11:52:29.765Z,99359.69
2019-04-07T11:54:10.638Z,99371.28
2019-04-07T11:55:52.159Z,99355.69
2019-04-07T11:58:02.868Z,99372.34
2019-04-07T11:59:37.768Z,99357.27
2019-04-07T12:01:28.161Z,99349.04
2019-04-07T12:03:17.231Z,99355.42
2019-04-07T12:05:13.416Z,99358.36
2019-04-07T12:07:08.991Z,99359.25
2019-04-07T12:09:08.885Z,99354.36
2019-04-07T12:11:02.838Z,99366.59
2019-04-07T12:12:43.924Z,99350.14
2019-04-07T12:14:37.388Z,99347.89
2019-04-07T12:16:46.720Z,99348.71
2019-04-07T12:18:32.157Z,99347.50
2019-04-07T12:20:33.589Z,99345.84
2019-04-07T12:22:24.974Z,99337.80
2019-04-07T12:24:09.501Z,99350.52
2019-04-07T12:26:18.917Z,99353.09
2019-04-07T12:28:03.479Z,99348.03
2019-04-07T12:29:42.894Z,99329.73
2019-04-07T12:31:46.657Z,99318.42
2019-04-07T12:33:28.563Z,99333.84
2019-04-07T12:35:10.847Z,99339.88
2019-04-07T12:37:06.857Z,99331.66
2019-04-07T12:38:54.271Z,99329.67
2019-04-07T12:41:09.968Z,99333.83
2019-04-07T12:42:51.310Z,99334.70
2019-04-07T12:44:41.751Z,99333.50
2019-04-07T12:46:28.981Z,99329.99
2019-04-07T12:48:23.098Z,99327.41
2019-04-07T12:50:05.169Z,99319.19
2019-04-07T12:51:57.652Z,99322.33
2019-04-07T12:53:50.153Z,99321.15
2019-04-07T12:55:36.132Z,99321.77
2019-04-07T12:57:28.869Z,99316.94
2019-04-07T12:59:41.146Z,99319.28
2019-04-07T13:01:31.696Z,99321.34
2019-04-07T13:03:24.377Z,99308.23
2019-04-07T13:05:08.750Z,99315.14
2019-04-07T13:07:15.115Z,99312.64
2019-04-07T13:09:09.246Z,99314.28
2019-04-07T13:11:04.720Z,99306.38
2019-04-07T13:12:46.609Z,99312.02
2019-04-07T13:14:40.078Z,99313.62
2019-04-07T13:16:36.060Z,99306.41
2019-04-07T13:18:17.588Z,99309.08
2019-04-07T13:20:07.329Z,99306.91
2019-04-07T13:21:59.619Z,99298.36
2019-04-07T13:23:51.460Z,99285.06
2019-04-07T13:25:39.485Z,99295.47
2019-04-07T13:27:38.966Z,99293.16
2019-04-07T13:29:33.432Z,99290.30
2019-04-07T13:31:30.573Z,99294.91
2019-04-07T13:33:20.561Z,99292.23
2019-04-07T13:35:07.555Z,99298.46
2019-04-07T13:37:04.592Z,99291.95
2019-04-07T13:39:05.539Z,99290.88
2019-04-07T13:41:09.407Z,99285.58
2019-04-07T13:43:03.075Z,99288.84
2019-04-07T13:44:55.719Z,99281.44
2019-04-07T13:46:44.918Z,99275.20
2019-04-07T13:48:37.950Z,99274.81
2019-04-07T13:50:30.043Z,99272.13
2019-04-07T13:52:21.786Z,99281.27
2019-04-07T13:54:18.939Z,99268.99
2019-04-07T13:56:12.091Z,99259.34
2019-04-07T13:58:08.722Z,99249.33
2019-04-07T13:59:57.848Z,99241.23
2019-04-07T14:01:54.079Z,99260.08
2019-04-07T14:03:42.771Z,99266.53
2019-04-07T14:05:26.267Z,99261.21
2019-04-07T14:07:19.588Z,99267.56
2019-04-07T14:09:06.771Z,99279.72
2019-04-07T14:11:10.673Z,99277.91
2019-04-07T14:13:04.140Z,99279.16
2019-04-07T14:14:54.851Z,99275.91
2019-04-07T14:16:48.710Z,99276.19
2019-04-07T14:18:48.497Z,99280.27
2019-04-07T14:20:29.362Z,99283.91
2019-04-07T14:22:35.138Z,99282.48
2019-04-07T14:24:43.666Z,99290.91
2019-04-07T14:26:37.796Z,99288.83
2019-04-07T14:28:21.533Z,99284.57
2019-04-07T14:30:13.699Z,99286.41
2019-04-07T14:32:05.977Z,99282.64
2019-04-07T14:33:50.180Z,99288.98
2019-04-07T14:35:49.917Z,99289.64
2019-04-07T14:37:43.881Z,99287.98
2019-04-07T14:39:31.443Z,99288.33
2019-04-07T14:41:43.557Z,99288.31
2019-04-07T14:43:43.243Z,99279.53
2019-04-07T14:45:34.072Z,99270.14
2019-04-07T14:47:25.128Z,99272.25
2019-04-07T14:49:07.765Z,99273.03
2019-04-07T14:50:48.519Z,99279.36
2019-04-07T14:52:45.040Z,99282.85
2019-04-07T14:54:29.250Z,99292.47
2019-04-07T14:56:12.171Z,99282.80
2019-04-07T14:58:15.329Z,99284.47
2019-04-07T14:59:56.306Z,99280.78
2019-04-07T15:01:50.157Z,99285.52
2019-04-07T15:03:24.715Z,99283.91
2019-04-07T15:05:03.046Z,99292.70
2019-04-07T15:06:37.701Z,99281.94
2019-04-07T15:08:32.810Z,99278.17
2019-04-07T15:10:13.553Z,99285.84
2019-04-07T15:11:56.564Z,99287.62
2019-04-07T15:13:31.026Z,99285.63
2019-04-07T15:15:09.986Z,99285.46
2019-04-07T15:16:42.812Z,99287.84
2019-04-07T15:18:18.659Z,99287.78
2019-04-07T15:19:53.584Z,99289.58
2019-04-07T15:21:28.268Z,99299.02
2019-04-07T15:23:02.877Z,99286.45
2019-04-07T15:24:38.730Z,99299.52
2019-04-07T15:26:16.370Z,99302.35
2019-04-07T15:27:50.281Z,99297.28
2019-04-07T15:29:25.364Z,99295.78
2019-04-07T15:30:59.841Z,99298.93
2019-04-07T15:32:35.927Z,99297.60
2019-04-07T15:34:12.010Z,99296.56
2019-04-07T15:35:49.432Z,99297.36
2019-04-07T15:37:24.964Z,99295.00
2019-04-07T15:38:59.594Z,99303.56
2019-04-07T15:40:36.253Z,99298.67
2019-04-07T15:42:11.555Z,99296.25
2019-04-07T15:43:47.422Z,99297.00
2019-04-07T15:45:22.212Z,99300.10
2019-04-07T15:46:57.465Z,99299.01
2019-04-07T15:48:32.863Z,99295.88
2019-04-07T15:50:08.469Z,99299.34
2019-04-07T15:51:43.313Z,99299.19
2019-04-07T15:53:17.765Z,99302.75
2019-04-07T15:54:54.335Z,99302.89
2019-04-07T15:56:28.794Z,99304.83
2019-04-07T15:58:04.144Z,99304.75
2019-04-07T15:59:39.443Z,99302.56
2019-04-07T16:01:16.043Z,99298.96
2019-04-07T16:02:52.180Z,99302.86
2019-04-07T16:04:29.319Z,99305.02
2019-04-07T16:06:03.501Z,99306.66
2019-04-07T16:07:38.147Z,99308.66
2019-04-07T16:09:29.036Z,99307.57
2019-04-07T16:10:52.070Z,99309.81
2019-04-07T16:12:26.229Z,99310.00
2019-04-07T16:14:01.617Z,99312.92
2019-04-07T16:15:37.200Z,99316.03
2019-04-07T16:17:12.107Z,99313.18
2019-04-07T16:18:46.671Z,99314.52
2019-04-07T16:20:25.859Z,99318.73
2019-04-07T16:21:57.528Z,99315.66
2019-04-07T16:23:32.710Z,99320.53
2019-04-07T16:25:08.069Z,99320.05
2019-04-07T16:26:43.278Z,99317.58
2019-04-07T16:28:18.568Z,99318.92
2019-04-07T16:29:53.334Z,99316.97
2019-04-07T16:31:27.731Z,99315.30
2019-04-07T16:33:05.196Z,99321.50
2019-04-07T16:34:41.140Z,99321.66
2019-04-07T16:36:14.894Z,99320.66
2019-04-07T16:37:50.242Z,99322.31
2019-04-07T16:39:25.319Z,99327.04
2019-04-07T16:41:00.447Z,99320.85
2019-04-07T16:42:34.925Z,99327.56
2019-04-07T16:44:10.626Z,99324.94
2019-04-07T16:45:46.249Z,99321.56
2019-04-07T16:47:25.685Z,99320.53
2019-04-07T16:48:58.535Z,99321.50
2019-04-07T16:50:33.236Z,99326.02
2019-04-07T16:52:07.689Z,99334.38
2019-04-07T16:53:43.096Z,99325.53
2019-04-07T16:55:39.926Z,99327.14
2019-04-07T16:57:15.355Z,99324.20
2019-04-07T16:58:50.242Z,99323.62
2019-04-07T17:00:24.821Z,99324.83
2019-04-07T17:02:00.164Z,99324.59
2019-04-07T17:03:35.458Z,99325.33
2019-04-07T17:05:10.125Z,99327.92
2019-04-07T17:06:44.944Z,99325.41
2019-04-07T17:08:22.189Z,99327.31
2019-04-07T17:09:57.479Z,99320.14
2019-04-07T17:11:32.309Z,99326.19
2019-04-07T17:13:16.994Z,99326.81
2019-04-07T17:14:43.427Z,99331.14
2019-04-07T17:16:22.461Z,99340.35
2019-04-07T17:17:54.649Z,99338.78
2019-04-07T17:19:30.116Z,99330.76
2019-04-07T17:21:09.459Z,99344.24
2019-04-07T17:22:48.164Z,99336.13
2019-04-07T17:24:24.934Z,99338.23
2019-04-07T17:25:58.376Z,99346.34
2019-04-07T17:27:32.952Z,99346.73
2019-04-07T17:29:08.918Z,99349.00
2019-04-07T17:30:44.481Z,99346.81
2019-04-07T17:32:19.897Z,99345.11
2019-04-07T17:33:55.132Z,99347.30
2019-04-07T17:35:30.694Z,99343.85
2019-04-07T17:37:05.407Z,99343.95
2019-04-07T17:38:45.349Z,99352.70
2019-04-07T17:40:22.669Z,99353.67
2019-04-07T17:41:57.873Z,99358.14
2019-04-07T17:43:49.404Z,99358.30
2019-04-07T17:45:28.675Z,99360.40
2019-04-07T17:47:12.456Z,99357.11
2019-04-07T17:49:11.990Z,99356.36
2019-04-07T17:51:07.223Z,99361.09
2019-04-07T17:53:16.289Z,99359.05
2019-04-07T17:55:00.914Z,99362.58
2019-04-07T17:56:41.908Z,99358.95
2019-04-07T17:58:25.229Z,99357.36
2019-04-07T18:00:18.553Z,99362.58
2019-04-07T18:02:18.286Z,99367.03
2019-04-07T18:04:14.630Z,99364.86
2019-04-07T18:06:06.449Z,99373.63
2019-04-07T18:07:59.322Z,99370.41
2019-04-07T18:09:57.366Z,99378.25
2019-04-07T18:11:39.223Z,99380.02
2019-04-07T18:13:43.394Z,99374.98
2019-04-07T18:15:18.780Z,99386.50
2019-04-07T18:17:13.016Z,99382.61
2019-04-07T18:19:10.887Z,99389.48
2019-04-07T18:21:15.755Z,99390.98
2019-04-07T18:23:09.927Z,99384.75
2019-04-07T18:24:55.589Z,99390.32
2019-04-07T18:26:40.428Z,99394.78
2019-04-07T18:28:43.316Z,99396.34
2019-04-07T18:30:45.581Z,99399.30
2019-04-07T18:32:27.893Z,99398.37
2019-04-07T18:34:36.615Z,99407.92
2019-04-07T18:36:27.688Z,99408.82
2019-04-07T18:38:21.800Z,99406.69
2019-04-07T18:40:18.191Z,99418.59
2019-04-07T18:42:14.167Z,99416.14
2019-04-07T18:44:20.408Z,99420.38
2019-04-07T18:46:29.268Z,99420.16
2019-04-07T18:48:22.764Z,99422.53
2019-04-07T18:50:09.121Z,99422.61
2019-04-07T18:52:08.930Z,99424.37
2019-04-07T18:54:12.209Z,99427.11
2019-04-07T18:56:06.613Z,99427.15
2019-04-07T18:58:13.108Z,99432.47
2019-04-07T19:00:00.035Z,99433.36
2019-04-07T19:01:52.229Z,99433.34
2019-04-07T19:03:45.333Z,99438.67
2019-04-07T19:05:34.476Z,99435.51
2019-04-07T19:07:28.949Z,99440.27
2019-04-07T19:09:14.916Z,99437.14
2019-04-07T19:11:18.968Z,99439.06
2019-04-07T19:13:17.574Z,99441.62
2019-04-07T19:15:08.805Z,99443.17
2019-04-07T19:16:50.885Z,99447.13
2019-04-07T19:18:32.783Z,99446.09
2019-04-07T19:20:26.049Z,99446.80
2019-04-07T19:22:21.403Z,99448.34
2019-04-07T19:24:11.654Z,99450.61
2019-04-07T19:26:04.234Z,99454.63
2019-04-07T19:28:01.031Z,99458.02
2019-04-07T19:30:01.753Z,99455.60
2019-04-07T19:31:59.648Z,99453.09
2019-04-07T19:34:08.454Z,99457.49
2019-04-07T19:36:18.901Z,99462.27
2019-04-07T19:38:08.468Z,99459.69
2019-04-07T19:40:02.879Z,99464.81
2019-04-07T19:41:53.486Z,99457.57
2019-04-07T19:43:46.577Z,99453.45
2019-04-07T19:45:44.232Z,99457.47
2019-04-07T19:47:33.993Z,99454.80
2019-04-07T19:49:17.829Z,99458.70
2019-04-07T19:51:08.740Z,99454.62
2019-04-07T19:52:51.422Z,99464.83
2019-04-07T19:54:38.762Z,99462.31
2019-04-07T19:56:27.681Z,99463.38
2019-04-07T19:58:17.723Z,99459.97
2019-04-07T20:00:15.352Z,99457.78
2019-04-07T20:02:08.348Z,99457.27
2019-04-07T20:03:54.013Z,99454.08
2019-04-07T20:05:48.804Z,99457.41
2019-04-07T20:07:38.381Z,99452.20
2019-04-07T20:09:32.133Z,99457.06
2019-04-07T20:11:22.152Z,99455.31
2019-04-07T20:13:24.131Z,99453.80
2019-04-07T20:15:20.011Z,99451.89
2019-04-07T20:17:00.482Z,99452.50
2019-04-07T20:18:46.736Z,99456.12
2019-04-07T20:20:30.229Z,99453.86
2019-04-07T20:22:15.205Z,99452.86
2019-04-07T20:24:24.326Z,99454.55
2019-04-07T20:26:21.162Z,99454.55